Maxwell Air Force Base
KMXF : now visible

Airfield :











YOU CAN JOIN US ON...

 
LOGIN :

Register | Disclaimer

   EN    FR    IT 

 









Legend :    VFR   Marginal VFR   IFR   Intensive IFR   Very Intensive IFR
Visi :
Ceiling :
>= 8 km
>= 3000ft
5 to 8 km
1000 to 3000 ft
1500m to 5 km
500 to 1000 ft
800 to 1500m
200 to 500 ft
< 800m
< 200 ft
Symbols :   Thunderstorms  Fog  Heavy snow  Heavy precipitations  Wind > 20 kt






- Airport Elevation : 171 ft


KMXF - Maxwell Air Force Base

CURRENT METAR :
  • 061556Z 15003KT 9SM FEW100 SCT150 13/06 A3016 RMK AO2A SLP216 T01340058

EXPIRED METARs :
  • 061456Z 08005KT 10SM BKN031 10/05 A3018 RMK AO2A SLP223 T00980052 50003
  • 061356Z 03003KT 10SM FEW140 08/05 A3017 RMK AO2A SLP220 T00830045
  • 061311Z 00000KT 10SM BKN130 BKN160 07/04 A3017 RMK SLP220

TAF TAF KMXF
Valid from the 06 at 12:00 until the 07 at 18:00 UTC


061200Z 0612/0718 11006KT 9999 SCT030 BKN120 QNH3013INS
BECMG 0618/0619 14006KT 8000 -SHRA BKN025 OVC040 QNH3010INS
BECMG 0701/0702 07006KT 9999 NSW BKN015 OVC025 QNH3015INS
BECMG 0705/0706 05006KT 6000 BR OVC005 QNH3016INS
BECMG 0714/0715 05006KT 9999 NSW SCT015 BKN025 QNH3024INS TX16/0618Z TN06/0612Z



MET'MAP, your aeronautical weather chart ! - Copyright ORBIFLY December 2007 - Disclaimer

ORBIFLY MET'MAP TEAM :

Programming & Development : Alexandra Zaïnal
Concept & original design : Baudouin d'Aumeries
Assistance for programming : Marc-Olivier Méhu
Technical & hardware support : Manuel Goepfert

Contact : metmap@orbifly.com




SOURCES & CREDITS :

   NOAA       Earth
Advisory